Time;durP1;ratioP1;P1;durP2;ratioP2;P2;SDS_P1;SDS_P2;PMS_P1;PMS_P2;Temp;Humidity;BMP_temperature;BMP_pressure;BME280_temperature;BME280_humidity;BME280_pressure;Samples;Min_cycle;Max_cycle;Signal;HPM_P1;HPM_P2
2023/04/15 00:00:11;;;;;;;3.60;2.20;;;;;;;10.19;100.00;100245.75;31380729;28;20049;-80
2023/04/15 00:15:14;;;;;;;5.97;2.20;;;;;;;10.20;100.00;100241.09;31371922;28;20053;-80
2023/04/15 00:30:16;;;;;;;4.77;2.73;;;;;;;10.03;100.00;100244.81;31369718;28;20493;-79
2023/04/15 00:45:18;;;;;;;9.20;3.10;;;;;;;10.02;100.00;100252.19;31392686;28;21883;-80
2023/04/15 01:00:20;;;;;;;5.13;3.00;;;;;;;9.97;100.00;100254.59;31375160;28;20485;-80
2023/04/15 01:15:22;;;;;;;4.33;2.77;;;;;;;9.87;100.00;100256.31;31380448;28;20546;-80
2023/04/15 01:30:25;;;;;;;7.27;3.57;;;;;;;9.63;100.00;100252.75;31343055;28;20056;-79
2023/04/15 01:45:27;;;;;;;9.63;5.57;;;;;;;9.60;100.00;100275.25;31379145;28;20083;-79
2023/04/15 02:00:31;;;;;;;12.40;5.53;;;;;;;9.64;100.00;100294.19;31395376;28;20052;-80
2023/04/15 02:15:33;;;;;;;8.17;4.43;;;;;;;9.61;100.00;100320.16;31407272;28;20467;-80
2023/04/15 02:30:35;;;;;;;8.40;3.83;;;;;;;9.49;100.00;100329.56;31388481;28;20064;-81
2023/04/15 02:45:37;;;;;;;7.33;4.10;;;;;;;9.55;100.00;100338.03;31400069;28;20125;-79
2023/04/15 03:00:39;;;;;;;10.73;5.10;;;;;;;9.16;100.00;100355.50;31373538;28;20067;-80
2023/04/15 03:15:41;;;;;;;7.40;4.33;;;;;;;9.06;100.00;100372.59;31378510;28;20101;-79
2023/04/15 03:30:43;;;;;;;5.10;2.80;;;;;;;9.16;100.00;100382.56;31406633;28;20440;-80
2023/04/15 03:45:45;;;;;;;3.70;2.10;;;;;;;8.97;100.00;100396.69;31388889;28;20076;-79
2023/04/15 04:00:47;;;;;;;3.93;2.00;;;;;;;9.13;100.00;100415.88;31360806;28;20052;-81
2023/04/15 04:15:49;;;;;;;3.73;2.10;;;;;;;9.31;100.00;100412.22;31371153;28;20045;-79
2023/04/15 04:30:51;;;;;;;4.20;2.67;;;;;;;9.23;100.00;100425.81;31374812;28;20664;-79
2023/04/15 04:45:53;;;;;;;5.13;2.90;;;;;;;9.12;100.00;100456.91;31358436;28;20073;-81
2023/04/15 05:00:55;;;;;;;6.43;3.83;;;;;;;9.28;100.00;100453.66;31373320;28;20370;-81
2023/04/15 05:15:57;;;;;;;5.80;3.33;;;;;;;9.40;100.00;100455.88;31372164;28;20049;-81
2023/04/15 05:30:59;;;;;;;4.87;3.50;;;;;;;9.66;100.00;100473.44;31367172;28;20111;-81
2023/04/15 05:46:01;;;;;;;5.20;2.90;;;;;;;9.90;100.00;100473.19;31367622;28;20416;-80
2023/04/15 06:01:03;;;;;;;6.40;3.73;;;;;;;10.13;100.00;100482.63;31370230;28;20145;-80
2023/04/15 06:16:06;;;;;;;9.17;3.63;;;;;;;10.42;100.00;100497.38;31359815;28;20152;-80
2023/04/15 06:31:09;;;;;;;5.40;3.60;;;;;;;10.53;100.00;100522.47;31391080;28;20495;-80
2023/04/15 06:46:11;;;;;;;6.37;3.80;;;;;;;10.65;100.00;100525.78;31404197;28;20049;-81
2023/04/15 07:01:13;;;;;;;8.13;4.30;;;;;;;10.67;100.00;100542.44;31403254;28;20136;-83
2023/04/15 07:16:15;;;;;;;6.53;3.30;;;;;;;10.69;100.00;100542.81;31380692;28;20123;-81
2023/04/15 07:31:17;;;;;;;3.70;2.77;;;;;;;10.57;100.00;100563.13;31409063;28;20063;-82
2023/04/15 07:46:19;;;;;;;4.20;3.20;;;;;;;10.85;100.00;100567.44;31371948;28;20052;-79
2023/04/15 08:01:21;;;;;;;8.77;4.10;;;;;;;10.71;100.00;100567.59;31391903;28;20049;-79
2023/04/15 08:16:26;;;;;;;10.30;4.70;;;;;;;11.04;100.00;100553.19;31424062;28;20401;-78
2023/04/15 08:31:29;;;;;;;7.90;4.93;;;;;;;10.97;100.00;100574.25;31411754;28;20045;-79
2023/04/15 08:46:34;;;;;;;8.00;4.30;;;;;;;10.86;100.00;100612.44;31378110;28;20110;-80
2023/04/15 09:01:37;;;;;;;10.43;5.60;;;;;;;10.80;100.00;100605.91;31408117;28;20045;-81
2023/04/15 09:17:02;;;;;;;10.13;4.83;;;;;;;10.65;100.00;100612.66;31408068;28;20056;-80
2023/04/15 09:32:14;;;;;;;7.30;5.03;;;;;;;10.94;100.00;100609.19;31369972;28;20060;-78
2023/04/15 09:47:30;;;;;;;7.03;4.50;;;;;;;11.09;100.00;100623.38;31420780;28;20045;-81
2023/04/15 10:02:32;;;;;;;7.87;4.83;;;;;;;11.40;100.00;100620.59;31403861;28;20051;-81
2023/04/15 10:17:36;;;;;;;11.53;4.63;;;;;;;11.52;100.00;100641.81;31415763;28;20084;-79
2023/04/15 10:32:39;;;;;;;6.70;4.80;;;;;;;11.69;100.00;100646.19;31424009;28;20051;-80
2023/04/15 10:47:42;;;;;;;6.63;4.33;;;;;;;11.95;100.00;100650.84;31432850;28;20091;-80
2023/04/15 11:02:47;;;;;;;6.43;4.33;;;;;;;12.10;100.00;100647.88;31435929;28;20090;-81
2023/04/15 11:17:50;;;;;;;82.83;41.03;;;;;;;12.34;100.00;100648.63;31416652;28;20087;-80
2023/04/15 11:32:58;;;;;;;5.50;3.90;;;;;;;12.56;100.00;100642.38;31434264;28;20063;-80
2023/04/15 11:48:11;;;;;;;2.03;1.80;;;;;;;12.30;100.00;100659.56;31426267;28;20105;-80
2023/04/15 12:03:22;;;;;;;3.47;2.17;;;;;;;12.16;100.00;100657.13;31412565;28;20106;-81
2023/04/15 12:18:25;;;;;;;4.47;3.00;;;;;;;12.67;100.00;100638.69;31412824;28;20566;-79
2023/04/15 12:33:36;;;;;;;3.07;2.30;;;;;;;12.48;100.00;100634.75;31423593;28;20104;-83
2023/04/15 12:48:39;;;;;;;4.47;2.57;;;;;;;12.33;100.00;100623.34;31395158;28;20255;-82
2023/04/15 13:03:41;;;;;;;3.27;2.33;;;;;;;12.78;100.00;100631.81;31406274;28;20488;-79
2023/04/15 13:18:44;;;;;;;3.00;2.20;;;;;;;12.88;100.00;100651.88;31391768;28;20048;-79
2023/04/15 13:33:47;;;;;;;2.57;1.93;;;;;;;12.45;100.00;100668.28;31398770;28;20049;-82
2023/04/15 13:48:48;;;;;;;4.27;2.83;;;;;;;12.36;100.00;100662.59;31375780;28;20057;-79
2023/04/15 14:03:50;;;;;;;4.57;2.60;;;;;;;12.22;100.00;100694.34;31361182;28;20083;-78
2023/04/15 14:18:52;;;;;;;8.03;2.60;;;;;;;11.89;100.00;100692.53;31336816;28;20050;-78
2023/04/15 14:33:54;;;;;;;6.13;2.80;;;;;;;11.71;100.00;100709.09;31376859;28;20053;-83
2023/04/15 14:48:56;;;;;;;3.80;2.87;;;;;;;11.66;100.00;100685.09;31388354;28;20505;-87
2023/04/15 15:03:58;;;;;;;2.87;2.50;;;;;;;11.57;100.00;100714.75;31442542;28;20057;-86
2023/04/15 15:19:00;;;;;;;3.37;2.73;;;;;;;11.43;100.00;100720.38;31443285;28;20052;-87
2023/04/15 15:34:03;;;;;;;6.23;2.70;;;;;;;10.99;100.00;100713.16;31417162;28;20057;-88
2023/04/15 15:49:05;;;;;;;6.87;3.60;;;;;;;11.00;100.00;100726.34;31424681;28;20049;-86
2023/04/15 16:04:09;;;;;;;7.20;3.83;;;;;;;11.15;100.00;100721.50;31366396;28;20041;-79
2023/04/15 16:19:11;;;;;;;7.83;4.10;;;;;;;10.83;100.00;100732.75;31401538;28;20056;-77
2023/04/15 16:34:14;;;;;;;4.57;3.67;;;;;;;10.35;100.00;100768.88;31372367;28;20045;-77
2023/04/15 16:49:16;;;;;;;6.43;4.53;;;;;;;10.54;100.00;100765.59;31382126;28;20057;-81
2023/04/15 17:04:18;;;;;;;7.63;4.70;;;;;;;10.46;100.00;100791.25;31368348;28;20045;-80
2023/04/15 17:19:20;;;;;;;9.07;4.60;;;;;;;10.35;100.00;100817.72;31395834;28;20077;-79
2023/04/15 17:34:23;;;;;;;10.80;5.63;;;;;;;10.26;100.00;100830.97;31356414;28;20590;-78
2023/04/15 17:49:25;;;;;;;10.97;5.07;;;;;;;10.24;100.00;100844.94;31396528;28;20515;-81
2023/04/15 18:04:27;;;;;;;7.63;5.30;;;;;;;10.04;100.00;100862.06;31370095;28;20052;-77
2023/04/15 18:19:30;;;;;;;7.20;4.73;;;;;;;10.08;100.00;100857.41;31363974;28;20121;-78
2023/04/15 18:34:32;;;;;;;7.80;4.50;;;;;;;9.89;100.00;100866.81;31378274;28;20049;-80
2023/04/15 18:49:35;;;;;;;7.03;4.37;;;;;;;9.99;100.00;100873.34;31405813;28;20064;-77
2023/04/15 19:04:37;;;;;;;7.63;4.70;;;;;;;9.95;100.00;100883.41;31355370;28;20053;-76
2023/04/15 19:19:39;;;;;;;12.17;4.67;;;;;;;9.95;100.00;100891.56;31393637;28;20051;-82
2023/04/15 19:34:41;;;;;;;6.00;4.50;;;;;;;9.96;100.00;100903.97;31387809;28;20087;-79
2023/04/15 19:49:43;;;;;;;13.67;7.33;;;;;;;9.85;100.00;100918.34;31421556;28;20049;-80
2023/04/15 20:04:45;;;;;;;11.60;5.87;;;;;;;9.92;100.00;100915.59;31401414;28;20106;-81
2023/04/15 20:19:47;;;;;;;12.90;6.17;;;;;;;9.54;100.00;100900.25;31374019;28;20053;-77
2023/04/15 20:34:49;;;;;;;13.20;6.27;;;;;;;9.72;100.00;100895.53;31381758;28;20049;-78
2023/04/15 20:49:51;;;;;;;11.20;6.70;;;;;;;9.64;100.00;100896.72;31354931;28;20060;-78
2023/04/15 21:04:53;;;;;;;12.80;6.27;;;;;;;9.47;100.00;100913.78;31333618;28;20127;-77
2023/04/15 21:19:55;;;;;;;12.20;6.37;;;;;;;9.55;100.00;100928.88;31342007;28;20096;-79
2023/04/15 21:34:57;;;;;;;10.17;5.93;;;;;;;9.37;100.00;100925.44;31324665;28;20053;-78
2023/04/15 21:49:59;;;;;;;14.33;7.27;;;;;;;9.23;100.00;100929.69;31316379;28;20062;-78
2023/04/15 22:05:01;;;;;;;12.00;6.47;;;;;;;9.33;100.00;100927.38;31339989;28;20045;-78
2023/04/15 22:20:03;;;;;;;13.67;6.20;;;;;;;9.15;100.00;100914.63;31340759;28;20140;-78
2023/04/15 22:35:05;;;;;;;12.77;7.73;;;;;;;9.19;100.00;100923.53;31350045;28;20084;-78
2023/04/15 22:50:07;;;;;;;10.87;6.10;;;;;;;9.17;100.00;100950.25;31353510;28;20111;-79
2023/04/15 23:05:09;;;;;;;10.57;6.93;;;;;;;9.12;100.00;100912.69;31334574;28;20053;-78
2023/04/15 23:20:15;;;;;;;15.70;5.53;;;;;;;9.14;100.00;100932.06;31339616;28;20041;-76
2023/04/15 23:35:16;;;;;;;8.20;4.50;;;;;;;9.00;100.00;100942.88;31358117;28;20052;-79
2023/04/15 23:50:18;;;;;;;7.27;3.93;;;;;;;9.06;100.00;100951.41;31360144;28;20065;-77
